sensor_id;sensor_type;location;lat;lon;timestamp;pressure;altitude;pressure_sealevel;temperature;humidity
7075;BME280;3578;51.568;6.932;2023-05-23T00:00:57;50077.06;;;-144.14;100.00
7075;BME280;3578;51.568;6.932;2023-05-23T00:03:24;50125.13;;;-144.14;100.00
7075;BME280;3578;51.568;6.932;2023-05-23T00:05:51;50149.16;;;-144.14;100.00
7075;BME280;3578;51.568;6.932;2023-05-23T00:08:18;50133.13;;;-144.14;100.00
7075;BME280;3578;51.568;6.932;2023-05-23T00:10:47;50145.16;;;-144.14;100.00
7075;BME280;3578;51.568;6.932;2023-05-23T00:13:14;50141.16;;;-144.14;100.00
7075;BME280;3578;51.568;6.932;2023-05-23T00:15:42;50141.16;;;-144.14;100.00
7075;BME280;3578;51.568;6.932;2023-05-23T00:18:10;50093.09;;;-144.14;100.00
7075;BME280;3578;51.568;6.932;2023-05-23T00:20:37;50121.13;;;-144.14;100.00
7075;BME280;3578;51.568;6.932;2023-05-23T00:23:05;50133.13;;;-144.14;100.00
7075;BME280;3578;51.568;6.932;2023-05-23T00:25:33;50157.16;;;-144.14;100.00
7075;BME280;3578;51.568;6.932;2023-05-23T00:28:02;50145.16;;;-144.14;100.00
7075;BME280;3578;51.568;6.932;2023-05-23T00:30:31;50129.13;;;-144.14;100.00
7075;BME280;3578;51.568;6.932;2023-05-23T00:32:58;50119.13;;;-144.14;100.00
7075;BME280;3578;51.568;6.932;2023-05-23T00:35:26;50105.09;;;-144.14;100.00
7075;BME280;3578;51.568;6.932;2023-05-23T00:37:53;50113.13;;;-144.14;100.00
7075;BME280;3578;51.568;6.932;2023-05-23T00:40:20;50167.19;;;-144.14;100.00
7075;BME280;3578;51.568;6.932;2023-05-23T00:42:48;50225.25;;;-144.14;100.00
7075;BME280;3578;51.568;6.932;2023-05-23T00:45:17;50209.22;;;-144.14;100.00
7075;BME280;3578;51.568;6.932;2023-05-23T00:47:45;50185.19;;;-144.14;100.00
7075;BME280;3578;51.568;6.932;2023-05-23T00:50:13;50237.25;;;-144.14;100.00
7075;BME280;3578;51.568;6.932;2023-05-23T00:52:42;50215.22;;;-144.14;100.00
7075;BME280;3578;51.568;6.932;2023-05-23T00:55:10;50197.22;;;-144.14;100.00
7075;BME280;3578;51.568;6.932;2023-05-23T00:57:37;50205.22;;;-144.14;100.00
7075;BME280;3578;51.568;6.932;2023-05-23T01:00:07;50233.25;;;-144.14;100.00
7075;BME280;3578;51.568;6.932;2023-05-23T01:02:41;50209.22;;;-144.14;100.00
7075;BME280;3578;51.568;6.932;2023-05-23T01:05:09;50193.22;;;-144.14;100.00
7075;BME280;3578;51.568;6.932;2023-05-23T01:07:39;50225.25;;;-144.14;100.00
7075;BME280;3578;51.568;6.932;2023-05-23T01:10:07;50235.25;;;-144.14;100.00
7075;BME280;3578;51.568;6.932;2023-05-23T01:12:48;50233.25;;;-144.14;100.00
7075;BME280;3578;51.568;6.932;2023-05-23T01:15:19;50249.28;;;-144.14;100.00
7075;BME280;3578;51.568;6.932;2023-05-23T01:17:54;50295.31;;;-144.14;100.00
7075;BME280;3578;51.568;6.932;2023-05-23T01:20:28;50281.31;;;-144.14;100.00
7075;BME280;3578;51.568;6.932;2023-05-23T01:23:16;50233.25;;;-144.14;100.00
7075;BME280;3578;51.568;6.932;2023-05-23T01:26:02;50235.25;;;-144.14;100.00
7075;BME280;3578;51.568;6.932;2023-05-23T01:28:39;50267.28;;;-144.14;100.00
7075;BME280;3578;51.568;6.932;2023-05-23T01:31:07;50281.31;;;-144.14;100.00
7075;BME280;3578;51.568;6.932;2023-05-23T01:33:37;50267.28;;;-144.14;100.00
7075;BME280;3578;51.568;6.932;2023-05-23T01:36:06;50247.28;;;-144.14;100.00
7075;BME280;3578;51.568;6.932;2023-05-23T01:38:33;50251.28;;;-144.14;100.00
7075;BME280;3578;51.568;6.932;2023-05-23T01:41:00;50263.28;;;-144.14;100.00
7075;BME280;3578;51.568;6.932;2023-05-23T01:43:27;50279.31;;;-144.14;100.00
7075;BME280;3578;51.568;6.932;2023-05-23T01:45:56;50277.31;;;-144.14;100.00
7075;BME280;3578;51.568;6.932;2023-05-23T01:48:25;50289.31;;;-144.14;100.00
7075;BME280;3578;51.568;6.932;2023-05-23T01:50:53;50315.34;;;-144.14;100.00
7075;BME280;3578;51.568;6.932;2023-05-23T01:53:22;50277.31;;;-144.14;100.00
7075;BME280;3578;51.568;6.932;2023-05-23T01:55:51;50333.38;;;-144.14;100.00
7075;BME280;3578;51.568;6.932;2023-05-23T01:58:18;50301.34;;;-144.14;100.00
7075;BME280;3578;51.568;6.932;2023-05-23T02:00:45;50337.38;;;-144.14;100.00
7075;BME280;3578;51.568;6.932;2023-05-23T02:03:14;50305.34;;;-144.14;100.00
7075;BME280;3578;51.568;6.932;2023-05-23T02:05:41;50325.34;;;-144.14;100.00
7075;BME280;3578;51.568;6.932;2023-05-23T02:08:08;50301.34;;;-144.14;100.00
7075;BME280;3578;51.568;6.932;2023-05-23T02:10:35;50349.38;;;-144.14;100.00
7075;BME280;3578;51.568;6.932;2023-05-23T02:13:02;50313.34;;;-144.14;100.00
7075;BME280;3578;51.568;6.932;2023-05-23T02:15:29;50357.41;;;-144.14;100.00
7075;BME280;3578;51.568;6.932;2023-05-23T02:17:56;50333.38;;;-144.14;100.00
7075;BME280;3578;51.568;6.932;2023-05-23T02:20:25;50401.44;;;-144.14;100.00
7075;BME280;3578;51.568;6.932;2023-05-23T02:22:52;50369.41;;;-144.14;100.00
7075;BME280;3578;51.568;6.932;2023-05-23T02:25:19;50381.44;;;-144.14;100.00
7075;BME280;3578;51.568;6.932;2023-05-23T02:27:46;50403.44;;;-144.14;100.00
7075;BME280;3578;51.568;6.932;2023-05-23T02:30:13;50421.47;;;-144.14;100.00
7075;BME280;3578;51.568;6.932;2023-05-23T02:32:41;50381.44;;;-144.14;100.00
7075;BME280;3578;51.568;6.932;2023-05-23T02:35:08;50379.44;;;-144.14;100.00
7075;BME280;3578;51.568;6.932;2023-05-23T02:37:37;50415.47;;;-144.14;100.00
7075;BME280;3578;51.568;6.932;2023-05-23T02:40:06;50405.47;;;-144.14;100.00
7075;BME280;3578;51.568;6.932;2023-05-23T02:42:33;50423.47;;;-144.14;100.00
7075;BME280;3578;51.568;6.932;2023-05-23T02:45:00;50453.50;;;-144.14;100.00
7075;BME280;3578;51.568;6.932;2023-05-23T02:47:27;50433.50;;;-144.14;100.00
7075;BME280;3578;51.568;6.932;2023-05-23T02:49:54;50437.50;;;-144.14;100.00
7075;BME280;3578;51.568;6.932;2023-05-23T02:52:21;50477.53;;;-144.14;99.97
7075;BME280;3578;51.568;6.932;2023-05-23T02:54:50;50459.53;;;-144.14;100.00
7075;BME280;3578;51.568;6.932;2023-05-23T02:57:16;50489.56;;;-144.14;100.00
7075;BME280;3578;51.568;6.932;2023-05-23T02:59:43;50509.59;;;-144.14;98.82
7075;BME280;3578;51.568;6.932;2023-05-23T03:02:10;50565.66;;;-144.14;98.66
7075;BME280;3578;51.568;6.932;2023-05-23T03:04:37;50559.66;;;-144.14;98.91
7075;BME280;3578;51.568;6.932;2023-05-23T03:07:04;50531.59;;;-144.14;98.96
7075;BME280;3578;51.568;6.932;2023-05-23T03:09:32;50557.66;;;-144.14;99.13
7075;BME280;3578;51.568;6.932;2023-05-23T03:12:01;50567.66;;;-144.14;99.07
7075;BME280;3578;51.568;6.932;2023-05-23T03:14:28;50559.66;;;-144.14;98.82
7075;BME280;3578;51.568;6.932;2023-05-23T03:16:55;50569.66;;;-144.14;98.87
7075;BME280;3578;51.568;6.932;2023-05-23T03:19:22;50557.66;;;-144.14;98.97
7075;BME280;3578;51.568;6.932;2023-05-23T03:21:49;50589.69;;;-144.14;98.93
7075;BME280;3578;51.568;6.932;2023-05-23T03:24:16;50599.69;;;-144.14;98.65
7075;BME280;3578;51.568;6.932;2023-05-23T03:26:43;50567.66;;;-144.14;98.83
7075;BME280;3578;51.568;6.932;2023-05-23T03:29:12;50643.75;;;-144.14;98.18
7075;BME280;3578;51.568;6.932;2023-05-23T03:31:39;50635.75;;;-144.14;98.17
7075;BME280;3578;51.568;6.932;2023-05-23T03:34:06;50625.72;;;-144.14;98.46
7075;BME280;3578;51.568;6.932;2023-05-23T03:36:33;50625.72;;;-144.14;98.60
7075;BME280;3578;51.568;6.932;2023-05-23T03:39:01;50619.72;;;-144.14;98.32
7075;BME280;3578;51.568;6.932;2023-05-23T03:41:28;50597.69;;;-144.14;98.39
7075;BME280;3578;51.568;6.932;2023-05-23T03:43:55;50617.72;;;-144.14;98.64
7075;BME280;3578;51.568;6.932;2023-05-23T03:46:23;50613.72;;;-144.14;98.75
7075;BME280;3578;51.568;6.932;2023-05-23T03:48:50;50605.69;;;-144.14;99.17
7075;BME280;3578;51.568;6.932;2023-05-23T03:51:17;50605.69;;;-144.14;99.39
7075;BME280;3578;51.568;6.932;2023-05-23T03:53:44;50623.72;;;-144.14;99.66
7075;BME280;3578;51.568;6.932;2023-05-23T03:56:11;50615.72;;;-144.14;99.38
7075;BME280;3578;51.568;6.932;2023-05-23T03:58:38;50587.69;;;-144.14;99.51
7075;BME280;3578;51.568;6.932;2023-05-23T04:01:05;50593.69;;;-144.14;99.86
7075;BME280;3578;51.568;6.932;2023-05-23T04:03:33;50605.69;;;-144.14;100.00
7075;BME280;3578;51.568;6.932;2023-05-23T04:06:00;50577.66;;;-144.14;100.00
7075;BME280;3578;51.568;6.932;2023-05-23T04:08:27;50597.69;;;-144.14;100.00
7075;BME280;3578;51.568;6.932;2023-05-23T04:10:58;50581.66;;;-144.14;100.00
7075;BME280;3578;51.568;6.932;2023-05-23T04:13:25;50585.69;;;-144.14;100.00
7075;BME280;3578;51.568;6.932;2023-05-23T04:15:52;50559.66;;;-144.14;100.00
7075;BME280;3578;51.568;6.932;2023-05-23T04:18:20;50587.69;;;-144.14;100.00
7075;BME280;3578;51.568;6.932;2023-05-23T04:20:49;50571.66;;;-144.14;100.00
7075;BME280;3578;51.568;6.932;2023-05-23T04:23:16;50591.69;;;-144.14;100.00
7075;BME280;3578;51.568;6.932;2023-05-23T04:25:43;50565.66;;;-144.14;100.00
7075;BME280;3578;51.568;6.932;2023-05-23T04:28:10;50591.69;;;-144.14;100.00
7075;BME280;3578;51.568;6.932;2023-05-23T04:30:38;50617.72;;;-144.14;100.00
7075;BME280;3578;51.568;6.932;2023-05-23T04:33:05;50549.63;;;-144.14;100.00
7075;BME280;3578;51.568;6.932;2023-05-23T04:35:32;50553.63;;;-144.14;100.00
7075;BME280;3578;51.568;6.932;2023-05-23T04:38:04;50559.66;;;-144.14;100.00
7075;BME280;3578;51.568;6.932;2023-05-23T04:40:31;50545.63;;;-144.14;100.00
7075;BME280;3578;51.568;6.932;2023-05-23T04:42:59;50561.66;;;-144.14;100.00
7075;BME280;3578;51.568;6.932;2023-05-23T04:45:26;50573.66;;;-144.14;100.00
7075;BME280;3578;51.568;6.932;2023-05-23T04:47:53;50567.66;;;-144.14;100.00
7075;BME280;3578;51.568;6.932;2023-05-23T04:50:21;50561.66;;;-144.14;100.00
7075;BME280;3578;51.568;6.932;2023-05-23T04:52:48;50541.63;;;-144.14;100.00
7075;BME280;3578;51.568;6.932;2023-05-23T04:55:16;50549.63;;;-144.14;100.00
7075;BME280;3578;51.568;6.932;2023-05-23T04:57:44;50575.66;;;-144.14;100.00
7075;BME280;3578;51.568;6.932;2023-05-23T05:00:12;50581.66;;;-144.14;100.00
7075;BME280;3578;51.568;6.932;2023-05-23T05:02:40;50601.69;;;-144.14;100.00
7075;BME280;3578;51.568;6.932;2023-05-23T05:05:09;50529.59;;;-144.14;100.00
7075;BME280;3578;51.568;6.932;2023-05-23T05:07:36;50585.69;;;-144.14;100.00
7075;BME280;3578;51.568;6.932;2023-05-23T05:10:05;50561.66;;;-144.14;100.00
7075;BME280;3578;51.568;6.932;2023-05-23T05:12:33;50553.63;;;-144.14;100.00
7075;BME280;3578;51.568;6.932;2023-05-23T05:15:02;50549.63;;;-144.14;100.00
7075;BME280;3578;51.568;6.932;2023-05-23T05:17:29;50581.66;;;-144.14;100.00
7075;BME280;3578;51.568;6.932;2023-05-23T05:20:01;50563.66;;;-144.14;100.00
7075;BME280;3578;51.568;6.932;2023-05-23T05:22:31;50543.63;;;-144.14;100.00
7075;BME280;3578;51.568;6.932;2023-05-23T05:24:59;50569.66;;;-144.14;100.00
7075;BME280;3578;51.568;6.932;2023-05-23T05:27:28;50581.66;;;-144.14;100.00
7075;BME280;3578;51.568;6.932;2023-05-23T05:29:57;50557.66;;;-144.14;100.00
7075;BME280;3578;51.568;6.932;2023-05-23T05:32:29;50577.66;;;-144.14;100.00
7075;BME280;3578;51.568;6.932;2023-05-23T05:34:58;50565.66;;;-144.14;100.00
7075;BME280;3578;51.568;6.932;2023-05-23T05:37:25;50627.72;;;-144.14;100.00
7075;BME280;3578;51.568;6.932;2023-05-23T05:39:52;50613.72;;;-144.14;99.83
7075;BME280;3578;51.568;6.932;2023-05-23T05:42:20;50619.72;;;-144.14;99.77
7075;BME280;3578;51.568;6.932;2023-05-23T05:44:47;50681.81;;;-144.14;98.51
7075;BME280;3578;51.568;6.932;2023-05-23T05:47:15;50691.81;;;-144.14;98.86
7075;BME280;3578;51.568;6.932;2023-05-23T05:49:42;50701.81;;;-144.14;98.67
7075;BME280;3578;51.568;6.932;2023-05-23T05:52:09;50693.81;;;-144.14;98.55
7075;BME280;3578;51.568;6.932;2023-05-23T05:54:36;50723.84;;;-144.14;98.29
7075;BME280;3578;51.568;6.932;2023-05-23T05:57:04;50699.81;;;-144.14;98.64
7075;BME280;3578;51.568;6.932;2023-05-23T05:59:31;50705.84;;;-144.14;98.64
7075;BME280;3578;51.568;6.932;2023-05-23T06:01:58;50715.84;;;-144.14;98.47
7075;BME280;3578;51.568;6.932;2023-05-23T06:04:27;50713.84;;;-144.14;98.66
7075;BME280;3578;51.568;6.932;2023-05-23T06:06:54;50729.88;;;-144.14;97.96
7075;BME280;3578;51.568;6.932;2023-05-23T06:09:21;50719.84;;;-144.14;98.08
7075;BME280;3578;51.568;6.932;2023-05-23T06:11:48;50713.84;;;-144.14;97.99
7075;BME280;3578;51.568;6.932;2023-05-23T06:14:15;50779.94;;;-144.14;97.63
7075;BME280;3578;51.568;6.932;2023-05-23T06:16:42;50755.91;;;-144.14;96.94
7075;BME280;3578;51.568;6.932;2023-05-23T06:19:08;50753.88;;;-144.14;96.83
7075;BME280;3578;51.568;6.932;2023-05-23T06:21:37;50817.97;;;-144.14;96.38
7075;BME280;3578;51.568;6.932;2023-05-23T06:24:04;50838.00;;;-144.14;96.16
7075;BME280;3578;51.568;6.932;2023-05-23T06:26:31;50846.00;;;-144.14;96.46
7075;BME280;3578;51.568;6.932;2023-05-23T06:28:59;50826.00;;;-144.14;96.38
7075;BME280;3578;51.568;6.932;2023-05-23T06:31:25;50832.00;;;-144.14;96.28
7075;BME280;3578;51.568;6.932;2023-05-23T06:33:53;50813.97;;;-144.14;96.46
7075;BME280;3578;51.568;6.932;2023-05-23T06:36:20;50805.97;;;-144.14;97.26
7075;BME280;3578;51.568;6.932;2023-05-23T06:38:48;50805.97;;;-144.14;96.72
7075;BME280;3578;51.568;6.932;2023-05-23T06:41:15;50805.97;;;-144.14;96.38
7075;BME280;3578;51.568;6.932;2023-05-23T06:43:42;50834.00;;;-144.14;95.55
7075;BME280;3578;51.568;6.932;2023-05-23T06:46:09;50850.03;;;-144.14;95.08
7075;BME280;3578;51.568;6.932;2023-05-23T06:48:35;50894.06;;;-144.14;94.71
7075;BME280;3578;51.568;6.932;2023-05-23T06:51:03;50860.03;;;-144.14;94.99
7075;BME280;3578;51.568;6.932;2023-05-23T06:53:29;50832.00;;;-144.14;95.44
7075;BME280;3578;51.568;6.932;2023-05-23T06:55:58;50866.03;;;-144.14;95.32
7075;BME280;3578;51.568;6.932;2023-05-23T06:58:25;50882.06;;;-144.14;95.42
7075;BME280;3578;51.568;6.932;2023-05-23T07:00:52;50906.09;;;-144.14;94.05
7075;BME280;3578;51.568;6.932;2023-05-23T07:03:19;50920.13;;;-144.14;94.45
7075;BME280;3578;51.568;6.932;2023-05-23T07:05:45;50898.09;;;-144.14;94.78
7075;BME280;3578;51.568;6.932;2023-05-23T07:08:12;50878.06;;;-144.14;94.91
7075;BME280;3578;51.568;6.932;2023-05-23T07:10:39;50894.06;;;-144.14;95.03
7075;BME280;3578;51.568;6.932;2023-05-23T07:13:08;50908.09;;;-144.14;94.74
7075;BME280;3578;51.568;6.932;2023-05-23T07:15:35;50908.09;;;-144.14;94.98
7075;BME280;3578;51.568;6.932;2023-05-23T07:18:02;50908.09;;;-144.14;94.77
7075;BME280;3578;51.568;6.932;2023-05-23T07:20:31;50978.19;;;-144.14;92.84
7075;BME280;3578;51.568;6.932;2023-05-23T07:22:58;50974.19;;;-144.14;93.10
7075;BME280;3578;51.568;6.932;2023-05-23T07:25:25;50962.16;;;-144.14;93.31
7075;BME280;3578;51.568;6.932;2023-05-23T07:27:53;50946.16;;;-144.14;92.85
7075;BME280;3578;51.568;6.932;2023-05-23T07:30:22;51016.25;;;-144.14;93.14
7075;BME280;3578;51.568;6.932;2023-05-23T07:32:48;50996.22;;;-144.14;93.69
7075;BME280;3578;51.568;6.932;2023-05-23T07:35:17;50966.19;;;-144.14;93.91
7075;BME280;3578;51.568;6.932;2023-05-23T07:37:48;51022.25;;;-144.14;92.99
7075;BME280;3578;51.568;6.932;2023-05-23T07:40:15;51018.25;;;-144.14;92.91
7075;BME280;3578;51.568;6.932;2023-05-23T07:42:42;50974.19;;;-144.14;93.69
7075;BME280;3578;51.568;6.932;2023-05-23T07:45:10;50984.19;;;-144.14;93.39
7075;BME280;3578;51.568;6.932;2023-05-23T07:47:40;50962.16;;;-144.14;94.17
7075;BME280;3578;51.568;6.932;2023-05-23T07:50:08;50976.19;;;-144.14;94.04
7075;BME280;3578;51.568;6.932;2023-05-23T07:52:35;50970.19;;;-144.14;93.96
7075;BME280;3578;51.568;6.932;2023-05-23T07:55:02;50938.13;;;-144.14;93.76
7075;BME280;3578;51.568;6.932;2023-05-23T07:57:29;50966.19;;;-144.14;94.25
7075;BME280;3578;51.568;6.932;2023-05-23T07:59:56;50948.16;;;-144.14;94.48
7075;BME280;3578;51.568;6.932;2023-05-23T08:02:23;50956.16;;;-144.14;94.74
7075;BME280;3578;51.568;6.932;2023-05-23T08:04:51;50946.16;;;-144.14;94.75
7075;BME280;3578;51.568;6.932;2023-05-23T08:07:19;50994.22;;;-144.14;93.78
7075;BME280;3578;51.568;6.932;2023-05-23T08:09:46;50978.19;;;-144.14;94.40
7075;BME280;3578;51.568;6.932;2023-05-23T08:12:13;50938.13;;;-144.14;94.88
7075;BME280;3578;51.568;6.932;2023-05-23T08:14:40;50958.16;;;-144.14;94.61
7075;BME280;3578;51.568;6.932;2023-05-23T08:17:07;50938.13;;;-144.14;95.05
7075;BME280;3578;51.568;6.932;2023-05-23T08:19:34;50942.16;;;-144.14;95.23
7075;BME280;3578;51.568;6.932;2023-05-23T08:22:03;50948.16;;;-144.14;95.02
7075;BME280;3578;51.568;6.932;2023-05-23T08:24:30;50982.19;;;-144.14;94.44
7075;BME280;3578;51.568;6.932;2023-05-23T08:26:58;50986.19;;;-144.14;93.84
7075;BME280;3578;51.568;6.932;2023-05-23T08:29:25;50982.19;;;-144.14;93.85
7075;BME280;3578;51.568;6.932;2023-05-23T08:31:52;50994.22;;;-144.14;94.28
7075;BME280;3578;51.568;6.932;2023-05-23T08:34:19;50986.19;;;-144.14;94.51
7075;BME280;3578;51.568;6.932;2023-05-23T08:36:46;50960.16;;;-144.14;94.35
7075;BME280;3578;51.568;6.932;2023-05-23T08:39:14;51024.25;;;-144.14;93.93
7075;BME280;3578;51.568;6.932;2023-05-23T08:41:41;50986.19;;;-144.14;94.47
7075;BME280;3578;51.568;6.932;2023-05-23T08:44:08;50990.22;;;-144.14;94.14
7075;BME280;3578;51.568;6.932;2023-05-23T08:46:40;51026.25;;;-144.14;93.72
7075;BME280;3578;51.568;6.932;2023-05-23T08:49:11;51000.22;;;-144.14;94.27
7075;BME280;3578;51.568;6.932;2023-05-23T08:51:42;50966.19;;;-144.14;94.65
7075;BME280;3578;51.568;6.932;2023-05-23T08:54:10;50990.22;;;-144.14;94.38
7075;BME280;3578;51.568;6.932;2023-05-23T08:56:40;50982.19;;;-144.14;95.15
7075;BME280;3578;51.568;6.932;2023-05-23T08:59:09;50994.22;;;-144.14;94.30
7075;BME280;3578;51.568;6.932;2023-05-23T09:01:37;50976.19;;;-144.14;93.34
7075;BME280;3578;51.568;6.932;2023-05-23T09:04:06;51018.25;;;-144.14;93.25
7075;BME280;3578;51.568;6.932;2023-05-23T09:06:34;51014.25;;;-144.14;92.97
7075;BME280;3578;51.568;6.932;2023-05-23T09:09:01;51080.34;;;-144.14;92.34
7075;BME280;3578;51.568;6.932;2023-05-23T09:11:29;51068.31;;;-144.14;92.18
7075;BME280;3578;51.568;6.932;2023-05-23T09:14:00;51126.41;;;-144.14;90.79
7075;BME280;3578;51.568;6.932;2023-05-23T09:16:31;51146.44;;;-144.14;90.22
7075;BME280;3578;51.568;6.932;2023-05-23T09:18:58;51172.47;;;-144.14;89.69
7075;BME280;3578;51.568;6.932;2023-05-23T09:21:26;51240.56;;;-144.14;87.33
7075;BME280;3578;51.568;6.932;2023-05-23T09:23:54;51232.56;;;-144.14;87.59
7075;BME280;3578;51.568;6.932;2023-05-23T09:26:21;51234.56;;;-144.14;87.98
7075;BME280;3578;51.568;6.932;2023-05-23T09:28:48;51246.56;;;-144.14;88.71
7075;BME280;3578;51.568;6.932;2023-05-23T09:31:17;51246.56;;;-144.14;88.74
7075;BME280;3578;51.568;6.932;2023-05-23T09:33:46;51222.53;;;-144.14;88.91
7075;BME280;3578;51.568;6.932;2023-05-23T09:36:14;51190.50;;;-144.14;88.95
7075;BME280;3578;51.568;6.932;2023-05-23T09:38:43;51214.53;;;-144.14;89.34
7075;BME280;3578;51.568;6.932;2023-05-23T09:41:10;51194.50;;;-144.14;89.71
7075;BME280;3578;51.568;6.932;2023-05-23T09:43:38;51174.47;;;-144.14;89.68
7075;BME280;3578;51.568;6.932;2023-05-23T09:46:08;51222.53;;;-144.14;89.23
7075;BME280;3578;51.568;6.932;2023-05-23T09:48:37;51208.50;;;-144.14;88.73
7075;BME280;3578;51.568;6.932;2023-05-23T09:51:04;51262.59;;;-144.14;88.76
7075;BME280;3578;51.568;6.932;2023-05-23T09:53:32;51244.56;;;-144.14;88.74
7075;BME280;3578;51.568;6.932;2023-05-23T09:56:00;51254.59;;;-144.14;89.04
7075;BME280;3578;51.568;6.932;2023-05-23T09:58:28;51222.53;;;-144.14;87.97
7075;BME280;3578;51.568;6.932;2023-05-23T10:00:56;51340.72;;;-144.14;85.82
7075;BME280;3578;51.568;6.932;2023-05-23T10:03:33;51332.69;;;-144.14;85.58
7075;BME280;3578;51.568;6.932;2023-05-23T10:06:07;51352.72;;;-144.14;85.09
7075;BME280;3578;51.568;6.932;2023-05-23T10:08:41;51450.88;;;-144.14;82.49
7075;BME280;3578;51.568;6.932;2023-05-23T10:14:51;51525.00;;;-144.14;82.58
7075;BME280;3578;51.568;6.932;2023-05-23T10:17:25;51647.19;;;-144.14;78.02
7075;BME280;3578;51.568;6.932;2023-05-23T10:20:00;51775.38;;;-144.14;74.70
7075;BME280;3578;51.568;6.932;2023-05-23T10:22:35;51827.47;;;-144.14;75.67
7075;BME280;3578;51.568;6.932;2023-05-23T10:25:02;51933.63;;;-144.14;71.82
7075;BME280;3578;51.568;6.932;2023-05-23T10:27:30;51965.69;;;-144.14;73.47
7075;BME280;3578;51.568;6.932;2023-05-23T10:29:58;51911.59;;;-144.14;75.98
7075;BME280;3578;51.568;6.932;2023-05-23T10:32:26;51975.72;;;-144.14;75.88
7075;BME280;3578;51.568;6.932;2023-05-23T10:35:00;51983.72;;;-144.14;76.36
7075;BME280;3578;51.568;6.932;2023-05-23T10:37:36;52047.84;;;-144.14;73.83
7075;BME280;3578;51.568;6.932;2023-05-23T10:40:12;52055.84;;;-144.14;75.05
7075;BME280;3578;51.568;6.932;2023-05-23T10:42:48;52099.91;;;-144.14;73.49
7075;BME280;3578;51.568;6.932;2023-05-23T10:45:20;52152.00;;;-144.14;70.71
7075;BME280;3578;51.568;6.932;2023-05-23T10:47:48;52097.91;;;-144.14;74.27
7075;BME280;3578;51.568;6.932;2023-05-23T10:50:31;52095.91;;;-144.14;76.03
7075;BME280;3578;51.568;6.932;2023-05-23T10:53:02;52087.91;;;-144.14;75.80
7075;BME280;3578;51.568;6.932;2023-05-23T10:55:35;52091.91;;;-144.14;75.84
7075;BME280;3578;51.568;6.932;2023-05-23T10:58:10;52113.94;;;-144.14;77.39
7075;BME280;3578;51.568;6.932;2023-05-23T11:00:38;52135.97;;;-144.14;73.23
7075;BME280;3578;51.568;6.932;2023-05-23T11:03:05;52190.06;;;-144.14;71.95
7075;BME280;3578;51.568;6.932;2023-05-23T11:05:33;52119.94;;;-144.14;75.06
7075;BME280;3578;51.568;6.932;2023-05-23T11:08:09;52146.00;;;-144.14;74.31
7075;BME280;3578;51.568;6.932;2023-05-23T11:10:57;52214.13;;;-144.14;73.00
7075;BME280;3578;51.568;6.932;2023-05-23T11:13:24;52288.25;;;-144.14;71.38
7075;BME280;3578;51.568;6.932;2023-05-23T11:15:51;52222.13;;;-144.14;75.07
7075;BME280;3578;51.568;6.932;2023-05-23T11:18:25;52252.19;;;-144.14;69.67
7075;BME280;3578;51.568;6.932;2023-05-23T11:20:53;52292.25;;;-144.14;71.67
7075;BME280;3578;51.568;6.932;2023-05-23T11:23:23;52298.25;;;-144.14;72.42
7075;BME280;3578;51.568;6.932;2023-05-23T11:25:51;52312.28;;;-144.14;68.87
7075;BME280;3578;51.568;6.932;2023-05-23T11:28:20;52380.41;;;-144.14;65.54
7075;BME280;3578;51.568;6.932;2023-05-23T11:30:49;52416.47;;;-144.14;64.11
7075;BME280;3578;51.568;6.932;2023-05-23T11:33:17;52464.56;;;-144.14;62.25
7075;BME280;3578;51.568;6.932;2023-05-23T11:35:47;52470.56;;;-144.14;64.58
7075;BME280;3578;51.568;6.932;2023-05-23T11:38:16;52478.59;;;-144.14;65.63
7075;BME280;3578;51.568;6.932;2023-05-23T11:40:45;52472.56;;;-144.14;67.11
7075;BME280;3578;51.568;6.932;2023-05-23T11:43:14;52464.56;;;-144.14;65.95
7075;BME280;3578;51.568;6.932;2023-05-23T11:45:42;52534.69;;;-144.14;63.21
7075;BME280;3578;51.568;6.932;2023-05-23T11:48:12;52572.75;;;-144.14;64.07
7075;BME280;3578;51.568;6.932;2023-05-23T11:50:46;52612.81;;;-144.14;64.19
7075;BME280;3578;51.568;6.932;2023-05-23T11:53:14;52680.97;;;-144.14;60.25
7075;BME280;3578;51.568;6.932;2023-05-23T11:55:50;52721.03;;;-144.14;56.70
7075;BME280;3578;51.568;6.932;2023-05-23T11:58:19;52739.06;;;-144.14;57.59
7075;BME280;3578;51.568;6.932;2023-05-23T12:00:46;52773.13;;;-144.14;56.73
7075;BME280;3578;51.568;6.932;2023-05-23T12:03:13;52743.06;;;-144.14;54.82
7075;BME280;3578;51.568;6.932;2023-05-23T12:05:42;52797.19;;;-144.14;55.76
7075;BME280;3578;51.568;6.932;2023-05-23T12:08:11;52829.25;;;-144.14;55.82
7075;BME280;3578;51.568;6.932;2023-05-23T12:10:51;52883.34;;;-144.14;54.77
7075;BME280;3578;51.568;6.932;2023-05-23T12:13:18;52961.50;;;-144.14;49.53
7075;BME280;3578;51.568;6.932;2023-05-23T12:15:45;53029.63;;;-144.14;48.45
7075;BME280;3578;51.568;6.932;2023-05-23T12:18:13;53065.69;;;-144.14;48.12
7075;BME280;3578;51.568;6.932;2023-05-23T12:20:40;53073.72;;;-144.14;50.39
7075;BME280;3578;51.568;6.932;2023-05-23T12:23:07;53091.75;;;-144.14;49.68
7075;BME280;3578;51.568;6.932;2023-05-23T12:25:39;53181.94;;;-144.14;47.74
7075;BME280;3578;51.568;6.932;2023-05-23T12:28:08;53177.94;;;-144.14;47.40
7075;BME280;3578;51.568;6.932;2023-05-23T12:30:41;53199.97;;;-144.14;46.57
7075;BME280;3578;51.568;6.932;2023-05-23T12:33:09;53306.19;;;-144.14;45.86
7075;BME280;3578;51.568;6.932;2023-05-23T12:35:36;53300.19;;;-144.14;46.84
7075;BME280;3578;51.568;6.932;2023-05-23T12:38:05;53314.19;;;-144.14;48.43
7075;BME280;3578;51.568;6.932;2023-05-23T12:40:34;53356.28;;;-144.14;48.70
7075;BME280;3578;51.568;6.932;2023-05-23T12:43:01;53374.31;;;-144.14;47.70
7075;BME280;3578;51.568;6.932;2023-05-23T12:45:34;53314.19;;;-144.14;48.43
7075;BME280;3578;51.568;6.932;2023-05-23T12:48:01;53330.25;;;-144.14;47.09
7075;BME280;3578;51.568;6.932;2023-05-23T12:50:28;53378.34;;;-144.14;47.15
7075;BME280;3578;51.568;6.932;2023-05-23T12:52:56;53446.47;;;-144.14;45.29
7075;BME280;3578;51.568;6.932;2023-05-23T12:55:23;53422.44;;;-144.14;45.88
7075;BME280;3578;51.568;6.932;2023-05-23T12:57:50;53376.34;;;-144.14;46.88
7075;BME280;3578;51.568;6.932;2023-05-23T13:00:18;53428.44;;;-144.14;45.90
7075;BME280;3578;51.568;6.932;2023-05-23T13:02:46;53432.44;;;-144.14;44.78
7075;BME280;3578;51.568;6.932;2023-05-23T13:05:14;53446.47;;;-144.14;45.37
7075;BME280;3578;51.568;6.932;2023-05-23T13:07:41;53486.56;;;-144.14;46.94